Time;durP1;ratioP1;P1;durP2;ratioP2;P2;SDS_P1;SDS_P2;PMS_P1;PMS_P2;Temp;Humidity;BMP_temperature;BMP_pressure;BME280_temperature;BME280_humidity;BME280_pressure;Samples;Min_cycle;Max_cycle;Signal;HPM_P1;HPM_P2
2021/03/04 00:00:59;;;;;;;;;;;;;;;18.27;62.49;101943.91;4997818;28;1885;-57
2021/03/04 00:03:25;;;;;;;;;;;;;;;18.28;62.40;101950.09;4998472;28;1521;-59
2021/03/04 00:05:51;;;;;;;;;;;;;;;18.26;62.58;101944.88;4998770;28;798;-57
2021/03/04 00:08:16;;;;;;;;;;;;;;;18.26;62.46;101936.84;4998309;28;833;-59
2021/03/04 00:10:41;;;;;;;;;;;;;;;18.28;62.19;101939.38;4998469;28;994;-59
2021/03/04 00:13:06;;;;;;;;;;;;;;;18.26;62.04;101936.84;4998595;28;751;-56
2021/03/04 00:15:32;;;;;;;;;;;;;;;18.28;62.19;101931.34;4998224;28;814;-59
2021/03/04 00:17:58;;;;;;;;;;;;;;;18.27;62.28;101914.44;4998289;28;786;-57
2021/03/04 00:20:25;;;;;;;;;;;;;;;18.29;62.43;101920.56;4998317;28;805;-56
2021/03/04 00:22:50;;;;;;;;;;;;;;;18.28;62.27;101913.50;4998201;28;1902;-59
2021/03/04 00:25:16;;;;;;;;;;;;;;;18.28;61.54;101915.28;4998375;28;802;-57
2021/03/04 00:27:42;;;;;;;;;;;;;;;18.28;62.19;101894.75;4998356;28;837;-57
2021/03/04 00:30:08;;;;;;;;;;;;;;;18.30;62.46;101905.34;4998355;28;769;-56
2021/03/04 00:32:33;;;;;;;;;;;;;;;18.26;62.36;101896.69;4997931;28;839;-56
2021/03/04 00:34:59;;;;;;;;;;;;;;;18.29;62.31;101893.78;4998208;28;794;-57
2021/03/04 00:37:24;;;;;;;;;;;;;;;18.30;61.98;101891.94;4997856;28;892;-59
2021/03/04 00:39:50;;;;;;;;;;;;;;;18.29;62.56;101888.41;4997795;28;818;-59
2021/03/04 00:42:15;;;;;;;;;;;;;;;18.26;61.84;101883.28;4997917;28;1949;-57
2021/03/04 00:44:40;;;;;;;;;;;;;;;18.29;62.39;101883.06;4997960;28;847;-59
2021/03/04 00:47:06;;;;;;;;;;;;;;;18.29;62.41;101888.41;4997973;28;794;-57
2021/03/04 00:49:31;;;;;;;;;;;;;;;18.27;62.32;101884.13;4997891;28;841;-56
2021/03/04 00:51:56;;;;;;;;;;;;;;;18.25;62.24;101870.84;4997829;28;790;-59
2021/03/04 00:54:21;;;;;;;;;;;;;;;18.24;62.47;101874.50;4997798;28;932;-56
2021/03/04 00:56:47;;;;;;;;;;;;;;;18.25;61.99;101864.63;4997584;28;762;-59
2021/03/04 00:59:12;;;;;;;;;;;;;;;18.25;62.24;101868.16;4997726;28;861;-57
2021/03/04 01:01:37;;;;;;;;;;;;;;;18.26;62.48;101877.94;4997604;28;1891;-57
2021/03/04 01:04:02;;;;;;;;;;;;;;;18.24;62.65;101854.88;4997709;28;824;-59
2021/03/04 01:06:28;;;;;;;;;;;;;;;18.25;62.30;101848.56;4997640;28;779;-59
2021/03/04 01:08:53;;;;;;;;;;;;;;;18.24;61.87;101842.38;4997591;28;830;-59
2021/03/04 01:11:18;;;;;;;;;;;;;;;18.25;62.01;101837.88;4996418;28;1031;-59
2021/03/04 01:13:44;;;;;;;;;;;;;;;18.25;62.27;101843.22;4997193;28;813;-59
2021/03/04 01:16:09;;;;;;;;;;;;;;;18.24;61.72;101841.50;4997427;28;763;-59
2021/03/04 01:18:35;;;;;;;;;;;;;;;18.23;61.81;101824.56;4997078;28;873;-59
2021/03/04 01:21:00;;;;;;;;;;;;;;;18.26;61.96;101827.06;4997287;28;1911;-59
2021/03/04 01:23:25;;;;;;;;;;;;;;;18.25;62.19;101822.66;4997300;28;803;-57
2021/03/04 01:25:51;;;;;;;;;;;;;;;18.27;62.54;101825.22;4997303;28;969;-59
2021/03/04 01:28:16;;;;;;;;;;;;;;;18.27;61.82;101815.38;4997125;28;924;-56
2021/03/04 01:30:41;;;;;;;;;;;;;;;18.29;62.21;101818.78;4997189;28;920;-56
2021/03/04 01:33:07;;;;;;;;;;;;;;;18.28;62.39;101809.06;4996725;28;833;-59
2021/03/04 01:35:33;;;;;;;;;;;;;;;18.28;61.97;101810.88;4997034;28;991;-56
2021/03/04 01:37:58;;;;;;;;;;;;;;;18.28;61.83;101808.19;4997049;28;817;-57
2021/03/04 01:40:23;;;;;;;;;;;;;;;18.29;62.15;101802.72;4996943;28;835;-59
2021/03/04 01:42:49;;;;;;;;;;;;;;;18.29;62.13;101801.88;4996753;28;1919;-56
2021/03/04 01:45:15;;;;;;;;;;;;;;;18.29;62.05;101805.41;4996527;28;833;-59
2021/03/04 01:47:42;;;;;;;;;;;;;;;18.31;61.78;101802.63;4997014;28;833;-56
2021/03/04 01:50:08;;;;;;;;;;;;;;;18.29;62.49;101796.53;4996552;28;826;-56
2021/03/04 01:52:34;;;;;;;;;;;;;;;18.28;62.43;101787.66;4996722;28;761;-57
2021/03/04 01:54:59;;;;;;;;;;;;;;;18.29;62.17;101801.88;4996759;28;757;-59
2021/03/04 01:57:26;;;;;;;;;;;;;;;18.30;62.19;101803.59;4996643;28;778;-57
2021/03/04 01:59:51;;;;;;;;;;;;;;;18.31;61.77;101804.47;4996611;28;781;-56
2021/03/04 02:02:17;;;;;;;;;;;;;;;18.29;61.97;101802.72;4996424;28;1894;-56
2021/03/04 02:04:42;;;;;;;;;;;;;;;18.29;62.20;101799.22;4996285;28;872;-56
2021/03/04 02:07:13;;;;;;;;;;;;;;;18.27;62.04;101793.09;4996460;28;767;-59
2021/03/04 02:09:41;;;;;;;;;;;;;;;18.27;62.51;101799.31;4996151;28;848;-59
2021/03/04 02:12:17;;;;;;;;;;;;;;;18.28;62.44;101803.72;4996094;28;1348;-56
2021/03/04 02:15:03;;;;;;;;;;;;;;;18.26;62.46;101792.25;4996419;28;786;-59
2021/03/04 02:17:29;;;;;;;;;;;;;;;18.26;62.46;101792.25;4995489;28;1759;-60
2021/03/04 02:19:57;;;;;;;;;;;;;;;18.23;62.52;101786.25;4996206;28;744;-56
2021/03/04 02:22:25;;;;;;;;;;;;;;;18.25;62.27;101790.53;4996037;28;1914;-57
2021/03/04 02:24:50;;;;;;;;;;;;;;;18.22;62.42;101792.53;4996271;28;825;-59
2021/03/04 02:27:17;;;;;;;;;;;;;;;18.22;62.18;101790.75;4996082;28;809;-57
2021/03/04 02:29:47;;;;;;;;;;;;;;;18.24;61.96;101783.47;4996422;28;823;-59
2021/03/04 02:32:13;;;;;;;;;;;;;;;18.20;61.95;101787.28;4996028;28;975;-59
2021/03/04 02:34:42;;;;;;;;;;;;;;;18.21;62.26;101791.69;4996099;28;816;-56
2021/03/04 02:37:09;;;;;;;;;;;;;;;18.18;62.31;101783.84;4995908;28;1511;-59
2021/03/04 02:39:35;;;;;;;;;;;;;;;18.19;62.37;101785.59;4995952;28;793;-57
2021/03/04 02:42:01;;;;;;;;;;;;;;;18.21;62.19;101780.13;4995837;28;1959;-59
2021/03/04 02:44:26;;;;;;;;;;;;;;;18.19;61.99;101780.22;4995479;28;1041;-59
2021/03/04 02:46:52;;;;;;;;;;;;;;;18.19;61.76;101772.22;4995860;28;755;-59
2021/03/04 02:49:19;;;;;;;;;;;;;;;18.18;62.14;101778.50;4995465;28;850;-56
2021/03/04 02:51:45;;;;;;;;;;;;;;;18.21;62.33;101772.97;4995775;28;782;-56
2021/03/04 02:54:10;;;;;;;;;;;;;;;18.22;62.44;101777.38;4995840;28;833;-56
2021/03/04 02:56:36;;;;;;;;;;;;;;;18.21;62.56;101772.97;4995450;28;786;-59
2021/03/04 02:59:05;;;;;;;;;;;;;;;18.19;61.93;101766.84;4995903;28;833;-59
2021/03/04 03:01:45;;;;;;;;;;;;;;;18.21;61.83;101756.91;5014043;23;2026;-46
2021/03/04 03:04:12;;;;;;;;;;;;;;;18.23;62.19;101765.69;5014089;28;852;-46
2021/03/04 03:06:38;;;;;;;;;;;;;;;18.22;62.37;101760.41;5013933;28;850;-46
2021/03/04 03:09:03;;;;;;;;;;;;;;;18.22;62.47;101772.00;5014097;28;851;-46
2021/03/04 03:11:29;;;;;;;;;;;;;;;18.22;62.13;101755.06;5040006;22;3682;-59
2021/03/04 03:13:54;;;;;;;;;;;;;;;18.20;62.11;101757.84;5034783;28;850;-59
2021/03/04 03:16:20;;;;;;;;;;;;;;;18.22;62.16;101763.09;5034691;28;800;-56
2021/03/04 03:18:46;;;;;;;;;;;;;;;18.23;61.93;101764.81;5034592;28;859;-56
2021/03/04 03:21:11;;;;;;;;;;;;;;;18.23;62.52;101754.97;5035002;28;1914;-56
2021/03/04 03:23:36;;;;;;;;;;;;;;;18.21;62.02;101748.00;5034758;28;859;-57
2021/03/04 03:26:02;;;;;;;;;;;;;;;18.21;62.26;101739.97;5034802;28;757;-56
2021/03/04 03:28:27;;;;;;;;;;;;;;;18.23;61.93;101748.75;5034615;28;840;-56
2021/03/04 03:30:54;;;;;;;;;;;;;;;18.22;61.98;101731.84;5034750;28;939;-59
2021/03/04 03:33:20;;;;;;;;;;;;;;;18.23;62.56;101738.06;5034830;28;753;-59
2021/03/04 03:35:45;;;;;;;;;;;;;;;18.23;61.97;101732.69;5037224;28;774;-56
2021/03/04 03:38:12;;;;;;;;;;;;;;;18.21;62.49;101745.34;5038463;28;847;-57
2021/03/04 03:40:39;;;;;;;;;;;;;;;18.19;61.89;101729.38;5038654;28;762;-59
2021/03/04 03:43:09;;;;;;;;;;;;;;;18.20;62.19;101731.06;5038532;28;1951;-59
2021/03/04 03:45:35;;;;;;;;;;;;;;;18.17;62.36;101723.25;5038756;28;836;-59
2021/03/04 03:48:02;;;;;;;;;;;;;;;18.19;62.43;101721.34;5038499;28;815;-56
2021/03/04 03:50:28;;;;;;;;;;;;;;;18.19;62.13;101729.38;5038258;28;835;-56
2021/03/04 03:52:53;;;;;;;;;;;;;;;18.17;61.89;101723.25;5038400;28;803;-59
2021/03/04 03:55:19;;;;;;;;;;;;;;;18.17;61.88;101712.56;5037939;28;891;-56
2021/03/04 03:57:45;;;;;;;;;;;;;;;18.20;62.22;101722.19;5037991;28;851;-59
2021/03/04 04:00:11;;;;;;;;;;;;;;;18.18;62.39;101716.09;5037954;28;805;-59
2021/03/04 04:02:36;;;;;;;;;;;;;;;18.20;61.95;101715.00;5037724;28;1945;-56
2021/03/04 04:05:02;;;;;;;;;;;;;;;18.16;62.01;101694.78;5037940;28;745;-59
2021/03/04 04:07:28;;;;;;;;;;;;;;;18.18;61.72;101695.53;5037782;28;887;-56
2021/03/04 04:09:53;;;;;;;;;;;;;;;18.18;61.94;101710.72;5038045;28;789;-56
2021/03/04 04:12:19;;;;;;;;;;;;;;;18.18;62.21;101714.25;5037774;28;1181;-56
2021/03/04 04:14:44;;;;;;;;;;;;;;;18.20;61.88;101714.16;5037927;28;816;-57
2021/03/04 04:17:09;;;;;;;;;;;;;;;18.20;61.75;101709.66;5037608;28;757;-56
2021/03/04 04:19:35;;;;;;;;;;;;;;;18.16;61.72;101689.41;5037883;28;750;-56
2021/03/04 04:22:01;;;;;;;;;;;;;;;18.18;61.65;101697.34;5037826;28;1975;-56
2021/03/04 04:24:26;;;;;;;;;;;;;;;18.20;62.01;101703.44;5037558;28;753;-57
2021/03/04 04:26:52;;;;;;;;;;;;;;;18.20;61.99;101690.91;5037594;28;750;-56
2021/03/04 04:29:17;;;;;;;;;;;;;;;18.21;62.12;101695.31;5037362;28;852;-56
2021/03/04 04:31:42;;;;;;;;;;;;;;;18.20;62.33;101690.91;5037384;28;866;-59
2021/03/04 04:34:07;;;;;;;;;;;;;;;18.21;62.19;101689.97;5037584;28;750;-56
2021/03/04 04:36:33;;;;;;;;;;;;;;;18.17;61.54;101696.50;5037556;28;793;-56
2021/03/04 04:38:58;;;;;;;;;;;;;;;18.17;61.70;101676.91;5037353;28;1469;-58
2021/03/04 04:41:23;;;;;;;;;;;;;;;18.18;62.01;101682.13;5037359;28;1956;-56
2021/03/04 04:43:49;;;;;;;;;;;;;;;18.20;62.12;101679.34;5037171;28;741;-59
2021/03/04 04:46:14;;;;;;;;;;;;;;;18.18;61.46;101674.09;5035920;28;948;-59
2021/03/04 04:48:39;;;;;;;;;;;;;;;18.17;62.29;101669.72;5037293;28;825;-59
2021/03/04 04:51:05;;;;;;;;;;;;;;;18.18;62.05;101676.78;5036963;28;780;-59
2021/03/04 04:53:30;;;;;;;;;;;;;;;18.19;62.18;101675.81;5037270;28;912;-59
2021/03/04 04:55:55;;;;;;;;;;;;;;;18.20;62.06;101674.84;5037345;28;802;-56
2021/03/04 04:58:20;;;;;;;;;;;;;;;18.20;62.07;101674.84;5036964;28;760;-56
2021/03/04 05:00:46;;;;;;;;;;;;;;;18.21;62.19;101671.22;5036954;28;796;-59
2021/03/04 05:03:11;;;;;;;;;;;;;;;18.20;61.64;101666.81;5036684;28;1953;-56
2021/03/04 05:05:36;;;;;;;;;;;;;;;18.19;62.05;101673.16;5036774;28;796;-57
2021/03/04 05:08:01;;;;;;;;;;;;;;;18.19;62.19;101678.50;5037207;28;746;-59
2021/03/04 05:10:27;;;;;;;;;;;;;;;18.21;61.90;101670.38;5036819;28;1141;-59
2021/03/04 05:12:52;;;;;;;;;;;;;;;18.18;61.28;101660.72;5036924;28;728;-59
2021/03/04 05:15:20;;;;;;;;;;;;;;;18.20;61.86;101664.13;5036617;28;812;-57
2021/03/04 05:17:45;;;;;;;;;;;;;;;18.19;61.28;101665.13;5036860;28;777;-56
2021/03/04 05:20:10;;;;;;;;;;;;;;;18.20;61.53;101668.66;5036582;28;875;-59
2021/03/04 05:22:36;;;;;;;;;;;;;;;18.20;61.19;101647.22;5036426;28;1914;-59
2021/03/04 05:25:01;;;;;;;;;;;;;;;18.21;61.26;101652.47;5036378;28;817;-59
2021/03/04 05:27:26;;;;;;;;;;;;;;;18.19;61.33;101637.50;5036303;28;979;-59
2021/03/04 05:29:52;;;;;;;;;;;;;;;18.20;61.22;101642.72;5036265;28;895;-57
2021/03/04 05:32:18;;;;;;;;;;;;;;;18.25;61.64;101655.81;5036256;28;833;-56
2021/03/04 05:34:43;;;;;;;;;;;;;;;18.20;61.06;101650.75;5036177;28;743;-59
2021/03/04 05:37:08;;;;;;;;;;;;;;;18.23;61.64;101642.53;5036495;28;847;-59
2021/03/04 05:39:34;;;;;;;;;;;;;;;18.25;61.54;101640.59;5036478;28;967;-57
2021/03/04 05:42:00;;;;;;;;;;;;;;;18.27;61.12;101644.00;5036165;28;1894;-59
2021/03/04 05:44:26;;;;;;;;;;;;;;;18.25;61.33;101640.59;5035948;28;777;-59
2021/03/04 05:46:51;;;;;;;;;;;;;;;18.27;61.75;101644.00;5036245;28;851;-56
2021/03/04 05:49:18;;;;;;;;;;;;;;;18.27;61.61;101643.16;5035884;28;924;-56
2021/03/04 05:51:45;;;;;;;;;;;;;;;18.26;61.78;101639.63;5036003;28;780;-59
2021/03/04 05:54:14;;;;;;;;;;;;;;;18.28;61.43;101636.81;5035919;28;833;-59
2021/03/04 05:56:41;;;;;;;;;;;;;;;18.29;61.54;101635.88;5018513;28;1165;-59
2021/03/04 05:59:07;;;;;;;;;;;;;;;18.33;61.65;101628.50;5035562;28;800;-58
2021/03/04 06:01:32;;;;;;;;;;;;;;;18.34;61.25;101635.53;5035860;28;1952;-59
2021/03/04 06:03:58;;;;;;;;;;;;;;;18.36;61.41;101637.13;5035647;28;813;-57
2021/03/04 06:06:23;;;;;;;;;;;;;;;18.37;60.93;101625.47;5035553;28;845;-59
2021/03/04 06:08:49;;;;;;;;;;;;;;;18.36;61.21;101617.53;5035853;28;991;-56
2021/03/04 06:11:14;;;;;;;;;;;;;;;18.44;60.75;101632.09;5035477;28;1065;-56
2021/03/04 06:13:39;;;;;;;;;;;;;;;18.45;60.96;101627.59;5035731;28;788;-56
2021/03/04 06:16:05;;;;;;;;;;;;;;;18.47;60.72;101614.94;5035761;28;769;-57
2021/03/04 06:18:37;;;;;;;;;;;;;;;18.52;60.59;101620.81;5033161;28;1500;-57
2021/03/04 06:21:02;;;;;;;;;;;;;;;18.51;61.13;101624.47;5021132;28;1195;-59
2021/03/04 06:23:31;;;;;;;;;;;;;;;18.54;60.52;101623.38;5031165;28;1910;-57
2021/03/04 06:25:56;;;;;;;;;;;;;;;18.55;61.02;101617.91;5034614;28;1287;-60
2021/03/04 06:28:29;;;;;;;;;;;;;;;18.60;60.06;101614.91;5034220;28;1535;-56
2021/03/04 06:31:16;;;;;;;;;;;;;;;18.57;60.72;101607.09;5021357;28;1125;-59
2021/03/04 06:33:41;;;;;;;;;;;;;;;18.62;60.86;101597.75;5032428;28;1280;-56
2021/03/04 06:36:10;;;;;;;;;;;;;;;18.66;60.95;101611.75;5019550;28;1458;-59
2021/03/04 06:38:36;;;;;;;;;;;;;;;18.65;60.67;101594.00;5033106;28;1532;-59
2021/03/04 06:41:01;;;;;;;;;;;;;;;18.68;60.84;101597.31;5032434;28;1630;-59
2021/03/04 06:43:30;;;;;;;;;;;;;;;18.67;60.97;101590.22;5032330;28;1871;-56
2021/03/04 06:46:02;;;;;;;;;;;;;;;18.71;60.96;101598.06;5032585;28;1168;-60
2021/03/04 06:48:27;;;;;;;;;;;;;;;18.71;60.94;101587.34;5032475;28;1125;-56
2021/03/04 06:51:00;;;;;;;;;;;;;;;18.75;60.53;101589.66;5032487;28;1152;-56
2021/03/04 06:53:25;;;;;;;;;;;;;;;18.75;60.63;101586.97;5031585;28;1204;-59
2021/03/04 06:56:04;;;;;;;;;;;;;;;18.76;60.55;101580.66;5027445;28;1260;-57
2021/03/04 06:58:30;;;;;;;;;;;;;;;18.80;60.43;101594.69;5034127;28;1175;-60
2021/03/04 07:01:05;;;;;;;;;;;;;;;18.81;60.79;101578.53;5034083;28;1239;-60
2021/03/04 07:03:34;;;;;;;;;;;;;;;18.81;60.50;101575.00;5033737;28;1894;-57
2021/03/04 07:09:10;;;;;;;;;;;;;;;18.81;60.59;101572.31;5000279;28;1738;-59
2021/03/04 07:11:36;;;;;;;;;;;;;;;18.80;60.33;101570.59;5034008;28;1267;-59
2021/03/04 07:14:02;;;;;;;;;;;;;;;18.82;60.48;101574.00;5034440;28;1124;-56
2021/03/04 07:16:37;;;;;;;;;;;;;;;18.80;60.40;101563.44;5034315;28;1092;-59
2021/03/04 07:19:04;;;;;;;;;;;;;;;18.80;60.58;101549.16;5034117;28;1112;-56
2021/03/04 07:21:36;;;;;;;;;;;;;;;18.82;61.02;101552.56;5033888;28;1910;-56
2021/03/04 07:24:02;;;;;;;;;;;;;;;18.83;60.65;101546.25;5034366;28;1159;-56
2021/03/04 07:26:28;;;;;;;;;;;;;;;18.79;60.76;101542.06;5033818;28;1160;-59
2021/03/04 07:28:56;;;;;;;;;;;;;;;18.78;60.70;101545.69;5033533;28;1179;-59
2021/03/04 07:31:21;;;;;;;;;;;;;;;18.79;60.60;101529.53;5032825;28;1231;-57
2021/03/04 07:33:48;;;;;;;;;;;;;;;18.79;60.95;101532.22;5034142;28;1105;-59
2021/03/04 07:36:14;;;;;;;;;;;;;;;18.78;60.97;101543.91;5026351;28;1175;-56
2021/03/04 07:38:39;;;;;;;;;;;;;;;18.80;60.95;101523.22;5030864;28;1101;-57
2021/03/04 07:41:07;;;;;;;;;;;;;;;18.90;60.66;101522.50;5020288;28;1021;-58
2021/03/04 07:43:48;;;;;;;;;;;;;;;18.92;60.52;101526.81;5016284;28;1882;-56
2021/03/04 07:46:33;;;;;;;;;;;;;;;18.90;60.43;101518.03;5017030;28;1226;-57
2021/03/04 07:48:59;;;;;;;;;;;;;;;18.88;60.79;101514.63;5001981;28;1331;-57
2021/03/04 07:51:25;;;;;;;;;;;;;;;18.89;60.47;101508.28;4995622;28;1223;-59
2021/03/04 07:53:51;;;;;;;;;;;;;;;18.86;60.90;101512.03;5013943;28;1297;-59
2021/03/04 07:56:37;;;;;;;;;;;;;;;18.90;60.42;101507.31;5013843;28;801;-57
2021/03/04 07:59:09;;;;;;;;;;;;;;;18.86;60.54;101495.09;5012176;28;2090;-59
2021/03/04 08:01:35;;;;;;;;;;;;;;;18.87;60.81;101513.75;5014247;28;1902;-58
2021/03/04 08:04:01;;;;;;;;;;;;;;;18.87;60.70;101502.19;5014642;28;776;-56
2021/03/04 08:06:27;;;;;;;;;;;;;;;18.86;60.76;101503.13;5014594;28;781;-56
2021/03/04 08:08:52;;;;;;;;;;;;;;;18.88;60.30;101494.03;5014360;28;789;-57
2021/03/04 08:11:43;;;;;;;;;;;;;;;18.85;60.74;101485.34;5014296;28;1151;-56
2021/03/04 08:14:15;;;;;;;;;;;;;;;18.85;61.13;101471.97;5018443;28;1619;-56
2021/03/04 08:16:41;;;;;;;;;;;;;;;18.84;60.94;101471.13;5032008;28;1413;-59
2021/03/04 08:19:06;;;;;;;;;;;;;;;18.85;60.83;101466.59;5033429;28;1378;-59
2021/03/04 08:21:32;;;;;;;;;;;;;;;18.86;60.55;101476.31;5035512;28;1902;-56
2021/03/04 08:23:57;;;;;;;;;;;;;;;18.84;60.78;101470.22;5036928;28;932;-56
2021/03/04 08:26:26;;;;;;;;;;;;;;;18.85;60.54;101472.81;5037803;28;739;-57
2021/03/04 08:29:05;;;;;;;;;;;;;;;18.82;60.77;101456.09;5037476;28;817;-58
2021/03/04 08:31:31;;;;;;;;;;;;;;;18.84;60.87;101459.53;5037469;28;769;-59
2021/03/04 08:33:57;;;;;;;;;;;;;;;18.81;60.86;101451.72;5037447;28;813;-59
2021/03/04 08:36:22;;;;;;;;;;;;;;;18.82;60.70;101450.75;5037270;28;805;-59
2021/03/04 08:38:47;;;;;;;;;;;;;;;18.82;60.74;101445.38;5037342;28;818;-59
2021/03/04 08:41:19;;;;;;;;;;;;;;;18.80;60.97;101450.88;5037193;28;868;-57
2021/03/04 08:43:44;;;;;;;;;;;;;;;18.81;60.88;101444.53;5037495;28;828;-59
2021/03/04 08:46:09;;;;;;;;;;;;;;;18.77;60.77;101426.97;5037473;28;810;-56
2021/03/04 08:48:42;;;;;;;;;;;;;;;18.79;61.05;101445.59;5037355;28;836;-59
2021/03/04 08:51:07;;;;;;;;;;;;;;;18.76;60.90;101438.66;5019624;28;841;-56
2021/03/04 08:53:33;;;;;;;;;;;;;;;18.78;61.11;101435.84;5037515;28;801;-59
2021/03/04 08:56:00;;;;;;;;;;;;;;;18.77;60.86;101436.81;5036957;28;860;-59
2021/03/04 08:58:26;;;;;;;;;;;;;;;18.79;60.89;101426.84;5037242;28;840;-56
2021/03/04 09:00:51;;;;;;;;;;;;;;;18.80;60.94;101431.25;5037153;28;765;-59
2021/03/04 09:03:17;;;;;;;;;;;;;;;18.80;60.83;101421.41;5036984;28;1963;-57
2021/03/04 09:05:43;;;;;;;;;;;;;;;18.83;60.78;101420.31;5036796;28;849;-60
2021/03/04 09:08:09;;;;;;;;;;;;;;;18.84;60.66;101422.00;5036684;28;1021;-56
2021/03/04 09:10:39;;;;;;;;;;;;;;;18.85;60.65;101415.69;5036831;28;1156;-57
2021/03/04 09:13:04;;;;;;;;;;;;;;;18.84;60.84;101412.16;5036939;28;783;-60
2021/03/04 09:15:29;;;;;;;;;;;;;;;18.82;60.97;101407.88;5036676;28;864;-56
2021/03/04 09:17:56;;;;;;;;;;;;;;;18.83;60.88;101405.06;5036826;28;801;-60
2021/03/04 09:20:21;;;;;;;;;;;;;;;18.87;60.96;101425.31;5036494;28;928;-59
2021/03/04 09:22:46;;;;;;;;;;;;;;;18.86;61.06;101398.63;5036362;28;1969;-56
2021/03/04 09:25:18;;;;;;;;;;;;;;;18.90;60.78;101399.25;5036353;28;1069;-60
2021/03/04 09:27:43;;;;;;;;;;;;;;;18.88;60.80;101388.66;5036468;28;730;-60
2021/03/04 09:30:09;;;;;;;;;;;;;;;18.89;60.95;101398.38;5036582;28;1799;-57
2021/03/04 09:32:35;;;;;;;;;;;;;;;18.83;61.05;101390.84;5035510;28;1265;-60
2021/03/04 09:35:09;;;;;;;;;;;;;;;18.85;60.99;101388.88;5036523;28;766;-60
2021/03/04 09:37:35;;;;;;;;;;;;;;;18.84;61.16;101381.81;5036158;28;1175;-56
2021/03/04 09:40:00;;;;;;;;;;;;;;;18.84;61.01;101377.31;5036470;28;802;-57
2021/03/04 09:42:33;;;;;;;;;;;;;;;18.84;60.77;101368.41;5036263;28;1882;-59
2021/03/04 09:45:08;;;;;;;;;;;;;;;18.84;61.01;101366.59;5036385;28;749;-60
2021/03/04 09:47:34;;;;;;;;;;;;;;;18.84;60.85;101365.72;5018572;28;770;-60
2021/03/04 09:50:00;;;;;;;;;;;;;;;18.84;61.06;101369.28;5036190;28;842;-57
2021/03/04 09:52:27;;;;;;;;;;;;;;;18.81;61.05;101355.25;5035986;28;860;-56
2021/03/04 09:55:04;;;;;;;;;;;;;;;18.80;61.03;101361.59;5036084;28;813;-60
2021/03/04 09:57:29;;;;;;;;;;;;;;;18.84;61.16;101352.31;5036060;28;742;-57
2021/03/04 09:59:54;;;;;;;;;;;;;;;18.82;61.22;101346.25;5035856;28;805;-60
2021/03/04 10:02:20;;;;;;;;;;;;;;;18.82;61.18;101348.91;5035477;28;1897;-59
2021/03/04 10:04:55;;;;;;;;;;;;;;;18.85;61.12;101343.34;5035584;28;898;-57
2021/03/04 10:07:25;;;;;;;;;;;;;;;18.86;60.92;101336.97;5035557;28;821;-58
2021/03/04 10:09:50;;;;;;;;;;;;;;;18.80;60.87;101338.34;5035840;28;771;-56
2021/03/04 10:12:15;;;;;;;;;;;;;;;18.84;61.41;101337.13;5035345;28;1134;-60
2021/03/04 10:14:47;;;;;;;;;;;;;;;18.79;61.04;101338.41;5035436;28;880;-57
2021/03/04 10:17:13;;;;;;;;;;;;;;;18.82;61.39;101317.63;5035701;28;742;-60
2021/03/04 10:19:39;;;;;;;;;;;;;;;18.83;61.14;101313.13;5035283;28;820;-56
2021/03/04 10:22:05;;;;;;;;;;;;;;;18.82;61.36;101306.91;5035211;28;1906;-60
2021/03/04 10:24:30;;;;;;;;;;;;;;;18.84;61.34;101314.81;5035553;28;765;-60
2021/03/04 10:26:58;;;;;;;;;;;;;;;18.83;61.46;101308.59;5035943;28;866;-60
2021/03/04 10:29:23;;;;;;;;;;;;;;;18.84;61.44;101302.28;5035410;28;857;-60
2021/03/04 10:31:48;;;;;;;;;;;;;;;18.83;61.29;101297.88;5035177;28;868;-57
2021/03/04 10:34:14;;;;;;;;;;;;;;;18.85;61.14;101297.78;5035318;28;864;-60
2021/03/04 10:36:39;;;;;;;;;;;;;;;18.88;61.39;101297.56;5035015;28;772;-57
2021/03/04 10:39:04;;;;;;;;;;;;;;;18.84;61.24;101288.03;5034539;28;745;-60
2021/03/04 10:41:29;;;;;;;;;;;;;;;18.84;61.49;101279.97;5035206;28;1893;-59
2021/03/04 10:43:55;;;;;;;;;;;;;;;18.83;61.13;101280.97;5035100;28;852;-60
2021/03/04 10:46:20;;;;;;;;;;;;;;;18.84;61.38;101282.66;5034998;28;872;-56
2021/03/04 10:48:45;;;;;;;;;;;;;;;18.81;61.48;101266.84;5035297;28;761;-60
2021/03/04 10:51:10;;;;;;;;;;;;;;;18.81;61.54;101266.84;5034844;28;951;-60
2021/03/04 10:53:36;;;;;;;;;;;;;;;18.83;61.50;101256.84;5035054;28;862;-60
2021/03/04 10:56:01;;;;;;;;;;;;;;;18.79;61.82;101256.25;5035115;28;806;-60
2021/03/04 10:58:27;;;;;;;;;;;;;;;18.81;62.12;101251.59;5034816;28;887;-56
2021/03/04 11:00:52;;;;;;;;;;;;;;;18.76;61.90;101226.13;5034985;28;884;-59
2021/03/04 11:03:17;;;;;;;;;;;;;;;18.77;61.93;101233.19;5034646;28;1955;-57
2021/03/04 11:05:42;;;;;;;;;;;;;;;18.76;61.92;101232.34;5034880;28;753;-56
2021/03/04 11:08:08;;;;;;;;;;;;;;;18.73;61.76;101215.66;5034712;28;857;-57
2021/03/04 11:10:33;;;;;;;;;;;;;;;18.78;61.79;101208.09;5034970;28;1149;-60
2021/03/04 11:12:58;;;;;;;;;;;;;;;18.78;61.71;101197.38;5035301;28;794;-56
2021/03/04 11:15:24;;;;;;;;;;;;;;;18.81;61.60;101199.84;5034599;28;847;-60
2021/03/04 11:17:49;;;;;;;;;;;;;;;18.80;61.66;101192.78;5034886;28;764;-60
2021/03/04 11:20:15;;;;;;;;;;;;;;;18.78;61.60;101184.84;5033936;28;1521;-59
2021/03/04 11:22:40;;;;;;;;;;;;;;;18.83;61.78;101184.50;5033295;28;1975;-59
2021/03/04 11:25:05;;;;;;;;;;;;;;;18.84;61.44;101186.19;5033516;28;932;-56
2021/03/04 11:27:31;;;;;;;;;;;;;;;18.84;61.55;101175.47;5034058;28;803;-57
2021/03/04 11:29:56;;;;;;;;;;;;;;;18.86;61.61;101194.97;5034382;28;777;-56
2021/03/04 11:32:21;;;;;;;;;;;;;;;18.81;61.44;101159.66;5034041;28;746;-56
2021/03/04 11:34:46;;;;;;;;;;;;;;;18.80;61.53;101172.22;5020579;28;1260;-60
2021/03/04 11:37:12;;;;;;;;;;;;;;;18.80;61.61;101174.91;5031057;28;832;-56
2021/03/04 11:39:37;;;;;;;;;;;;;;;18.79;61.75;101156.22;5024451;28;1498;-56
2021/03/04 11:42:02;;;;;;;;;;;;;;;18.82;61.99;101161.34;5023396;28;1943;-57
2021/03/04 11:44:28;;;;;;;;;;;;;;;18.81;61.95;101157.00;5050199;22;2085;-47
2021/03/04 11:46:53;;;;;;;;;;;;;;;18.79;61.89;101159.78;5030079;28;1282;-47
2021/03/04 11:49:18;;;;;;;;;;;;;;;18.81;61.77;101159.66;5036009;28;1152;-47
2021/03/04 11:51:44;;;;;;;;;;;;;;;18.77;61.80;101147.47;5045351;28;1536;-46
2021/03/04 11:54:10;;;;;;;;;;;;;;;18.76;62.21;101135.91;5036165;28;1225;-47
2021/03/04 11:56:38;;;;;;;;;;;;;;;18.77;61.60;101140.28;5032838;28;1226;-47
2021/03/04 11:59:11;;;;;;;;;;;;;;;18.77;61.62;101129.56;5036018;28;1215;-45
2021/03/04 12:01:37;;;;;;;;;;;;;;;18.82;61.66;101134.56;5048764;28;1918;-46
2021/03/04 12:04:04;;;;;;;;;;;;;;;18.81;61.66;101132.88;5041416;28;1288;-46
2021/03/04 12:06:29;;;;;;;;;;;;;;;18.82;61.60;101123.84;5048046;28;1502;-46
2021/03/04 12:08:54;;;;;;;;;;;;;;;18.82;61.31;101122.03;5054740;28;1660;-46
2021/03/04 12:11:20;;;;;;;;;;;;;;;18.84;61.40;101111.16;5038169;28;1398;-47
2021/03/04 12:13:45;;;;;;;;;;;;;;;18.84;61.29;101105.81;5046009;28;1432;-46
2021/03/04 12:16:11;;;;;;;;;;;;;;;18.84;61.25;101106.69;5051203;28;828;-46
2021/03/04 12:18:36;;;;;;;;;;;;;;;18.83;61.52;101098.75;5054182;28;988;-46
2021/03/04 12:21:02;;;;;;;;;;;;;;;18.82;61.70;101113.13;5047742;28;1852;-46
2021/03/04 12:23:28;;;;;;;;;;;;;;;18.80;61.76;101109.72;5036013;28;2349;-46
2021/03/04 12:25:53;;;;;;;;;;;;;;;18.78;61.61;101109.84;5036537;28;1096;-47
2021/03/04 12:28:19;;;;;;;;;;;;;;;18.80;62.11;101099.00;5038206;28;1001;-46
2021/03/04 12:30:44;;;;;;;;;;;;;;;18.77;61.96;101094.72;5055850;28;1435;-46
2021/03/04 12:33:10;;;;;;;;;;;;;;;18.79;61.74;101091.94;5039964;28;836;-45
2021/03/04 12:35:35;;;;;;;;;;;;;;;18.76;61.87;101092.16;5048804;28;1242;-45
2021/03/04 12:38:00;;;;;;;;;;;;;;;18.78;62.05;101095.56;5054798;28;1222;-45
2021/03/04 12:40:30;;;;;;;;;;;;;;;18.79;61.77;101082.09;5040347;28;1056;-46
2021/03/04 12:42:56;;;;;;;;;;;;;;;18.80;62.02;101085.59;5054512;28;1882;-45
2021/03/04 12:45:23;;;;;;;;;;;;;;;18.79;61.76;101083.88;5047572;28;1285;-46
2021/03/04 12:47:48;;;;;;;;;;;;;;;18.78;61.84;101071.44;5035714;28;1175;-45
2021/03/04 12:50:14;;;;;;;;;;;;;;;18.81;61.88;101073.94;5044291;28;1363;-45
2021/03/04 12:52:39;;;;;;;;;;;;;;;18.80;61.99;101072.22;5038248;28;1184;-45